createdAt,value
2023-02-17T00:04:52.290Z,99260.23
2023-02-17T00:15:16.461Z,99260.83
2023-02-17T00:25:41.230Z,99260.61
2023-02-17T00:36:10.846Z,99262.17
2023-02-17T00:46:35.070Z,99256.06
2023-02-17T00:56:59.456Z,99244.23
2023-02-17T01:07:23.674Z,99236.88
2023-02-17T01:17:47.892Z,99218.08
2023-02-17T01:28:16.288Z,99220.94
2023-02-17T01:38:40.893Z,99208.90
2023-02-17T01:49:15.144Z,99205.96
2023-02-17T01:59:40.316Z,99193.80
2023-02-17T02:10:07.517Z,99195.38
2023-02-17T02:21:08.592Z,99189.45
2023-02-17T02:31:51.790Z,99180.10
2023-02-17T02:42:19.339Z,99174.14
2023-02-17T02:52:54.875Z,99155.44
2023-02-17T03:03:25.756Z,99147.90
2023-02-17T03:13:49.969Z,99137.06
2023-02-17T03:24:14.350Z,99137.29
2023-02-17T03:34:39.415Z,99123.11
2023-02-17T03:45:05.248Z,99128.05
2023-02-17T03:55:29.488Z,99126.47
2023-02-17T04:05:54.126Z,99124.03
2023-02-17T04:16:18.494Z,99117.25
2023-02-17T04:26:42.683Z,99106.63
2023-02-17T04:37:07.047Z,99106.14
2023-02-17T04:47:31.235Z,99107.92
2023-02-17T04:57:56.161Z,99104.51
2023-02-17T05:08:21.716Z,99088.18
2023-02-17T05:18:46.575Z,99079.60
2023-02-17T05:29:11.526Z,99067.77
2023-02-17T05:39:36.428Z,99068.89
2023-02-17T05:50:01.260Z,99058.27
2023-02-17T06:00:26.593Z,99056.67
2023-02-17T06:10:52.280Z,99061.94
2023-02-17T06:21:16.474Z,99048.46
2023-02-17T06:31:41.436Z,99033.61
2023-02-17T06:42:06.352Z,99030.13
2023-02-17T06:52:31.383Z,99025.38
2023-02-17T07:02:56.324Z,99021.95
2023-02-17T07:13:21.143Z,99023.64
2023-02-17T07:23:45.959Z,99016.92
2023-02-17T07:34:10.868Z,99027.40
2023-02-17T07:44:35.987Z,99020.34
2023-02-17T07:55:01.281Z,99024.59
2023-02-17T08:05:25.514Z,99002.45
2023-02-17T08:15:50.507Z,98991.43
2023-02-17T08:26:15.350Z,98985.93
2023-02-17T08:36:40.949Z,98987.06
2023-02-17T08:47:06.474Z,98994.77
2023-02-17T08:57:30.727Z,98987.56
2023-02-17T09:07:54.915Z,98981.84
2023-02-17T09:18:19.946Z,98981.80
2023-02-17T09:28:44.880Z,98984.92
2023-02-17T09:39:11.566Z,98973.61
2023-02-17T09:49:41.168Z,98957.88
2023-02-17T10:00:12.643Z,98955.66
2023-02-17T10:10:43.436Z,98961.80
2023-02-17T10:21:13.224Z,98946.19
2023-02-17T10:31:45.120Z,98940.14
2023-02-17T10:42:17.379Z,98938.23
2023-02-17T10:52:42.486Z,98912.29
2023-02-17T11:03:06.784Z,98902.91
2023-02-17T11:13:37.457Z,98889.66
2023-02-17T11:24:05.023Z,98865.52
2023-02-17T11:34:32.375Z,98841.51
2023-02-17T11:44:59.295Z,98830.35
2023-02-17T11:55:31.196Z,98807.74
2023-02-17T12:06:08.620Z,98799.48
2023-02-17T12:16:45.455Z,98792.77
2023-02-17T12:27:24.103Z,98781.38
2023-02-17T12:37:53.506Z,98775.70
2023-02-17T12:48:26.337Z,98760.21
2023-02-17T12:58:52.543Z,98748.83
2023-02-17T13:09:26.288Z,98731.86
2023-02-17T13:20:03.893Z,98706.44
2023-02-17T13:30:38.524Z,98684.66
2023-02-17T13:41:06.446Z,98673.95
2023-02-17T13:51:32.956Z,98653.40
2023-02-17T14:01:57.306Z,98635.22
2023-02-17T14:12:23.634Z,98630.91
2023-02-17T14:23:03.936Z,98621.40
2023-02-17T14:33:28.987Z,98607.04
2023-02-17T14:43:53.177Z,98592.66
2023-02-17T14:54:18.751Z,98566.52
2023-02-17T15:04:43.394Z,98558.40
2023-02-17T15:15:14.089Z,98545.77
2023-02-17T15:25:38.318Z,98528.13
2023-02-17T15:36:02.575Z,98510.99
2023-02-17T15:46:30.793Z,98489.70
2023-02-17T15:56:55.036Z,98467.02
2023-02-17T16:07:19.327Z,98461.81
2023-02-17T16:17:43.735Z,98461.45
2023-02-17T16:28:15.112Z,98458.52
2023-02-17T16:38:39.293Z,98436.02
2023-02-17T16:49:19.168Z,98410.05
2023-02-17T16:59:43.559Z,98392.38
2023-02-17T17:10:16.736Z,98387.69
2023-02-17T17:20:41.872Z,98380.72
2023-02-17T17:31:06.212Z,98359.71
2023-02-17T17:41:34.448Z,98349.23
2023-02-17T17:51:58.630Z,98362.68
2023-02-17T18:02:22.841Z,98371.43
2023-02-17T18:12:48.240Z,98359.06
2023-02-17T18:23:12.745Z,98361.46
2023-02-17T18:33:38.159Z,98365.11
2023-02-17T18:44:05.465Z,98359.60
2023-02-17T18:54:29.799Z,98352.32
2023-02-17T19:05:02.452Z,98363.34
2023-02-17T19:15:26.703Z,98363.06
2023-02-17T19:25:51.020Z,98359.68
2023-02-17T19:36:17.144Z,98374.15
2023-02-17T19:46:41.694Z,98380.64
2023-02-17T19:57:06.082Z,98379.75
2023-02-17T20:07:31.148Z,98361.39
2023-02-17T20:17:55.302Z,98343.40
2023-02-17T20:28:20.487Z,98353.65
2023-02-17T20:38:45.653Z,98355.42
2023-02-17T20:49:10.634Z,98351.78
2023-02-17T20:59:35.488Z,98340.31
2023-02-17T21:10:00.321Z,98339.61
2023-02-17T21:20:25.214Z,98326.61
2023-02-17T21:30:50.232Z,98314.30
2023-02-17T21:41:17.937Z,98324.48
2023-02-17T21:51:42.235Z,98306.36
2023-02-17T22:02:06.498Z,98295.80
2023-02-17T22:12:30.751Z,98288.69
2023-02-17T22:22:55.315Z,98311.61
2023-02-17T22:33:19.570Z,98329.52
2023-02-17T22:43:44.807Z,98362.77
2023-02-17T22:54:09.610Z,98350.70
2023-02-17T23:04:33.982Z,98351.91
2023-02-17T23:14:58.204Z,98345.14
2023-02-17T23:25:22.426Z,98342.72
2023-02-17T23:35:48.166Z,98342.39
2023-02-17T23:46:12.584Z,98344.63
2023-02-17T23:56:37.655Z,98343.27
